This is the latest recevied weather packets stored in our database for station/object IZ1HMT-3. If no packets are shown the sender has not sent any weather packets the latest 10 day(s).
| Time | Temp. | Humidity | Pressure | Rain* | Wind** | Luminosity | Snow |
|---|---|---|---|---|---|---|---|
| 1788354795 | 31.11° C | 52% | 1018.7 hPa | - | - | - | - |
| 1788353588 | 31.67° C | 51% | 1019 hPa | - | - | - | - |
| 1788352983 | 32.22° C | 50% | 1018.9 hPa | - | - | - | - |
| 1788351788 | 32.78° C | 46% | 1019.1 hPa | - | - | - | - |
| 1788350567 | 32.22° C | 49% | 1019.2 hPa | - | - | - | - |
| 1788349968 | 32.78° C | 47% | 1019.3 hPa | - | - | - | - |
| 1788348755 | 32.78° C | 48% | 1019.5 hPa | - | - | - | - |
| 1788348151 | 32.78° C | 48% | 1019.5 hPa | - | - | - | - |
| 1788347566 | 32.78° C | 47% | 1019.5 hPa | - | - | - | - |
| 1788346942 | 32.78° C | 47% | 1019.6 hPa | - | - | - | - |
| 1788346332 | 32.78° C | 47% | 1019.7 hPa | - | - | - | - |
| 1788345727 | 32.22° C | 48% | 1019.8 hPa | - | - | - | - |
| 1788344519 | 32.78° C | 46% | 1020 hPa | - | - | - | - |
| 1788343915 | 34.44° C | 43% | 1019.9 hPa | - | - | - | - |
| 1788343310 | 36.67° C | 38% | 1020 hPa | - | - | - | - |
| 1788342103 | 38.33° C | 37% | 1019.9 hPa | - | - | - | - |
| 1788339685 | 38.89° C | 35% | 1019.8 hPa | - | - | - | - |
| 1788338477 | 38.33° C | 38% | 1019.7 hPa | - | - | - | - |
| 1788337872 | 36.11° C | 42% | 1019.6 hPa | - | - | - | - |
| 1788337269 | 33.89° C | 45% | 1019.6 hPa | - | - | - | - |
| 1788335455 | 33.89° C | 44% | 1019.4 hPa | - | - | - | - |
| 1788334850 | 32.78° C | 47% | 1019.4 hPa | - | - | - | - |
| 1788333038 | 36.11° C | 41% | 1019.1 hPa | - | - | - | - |
| 1788332433 | 35° C | 44% | 1019.1 hPa | - | - | - | - |
| 1788323970 | 24.44° C | 66% | 1019 hPa | - | - | - | - |
* Rain since midnight (hover to see other rain measurements)
** Current wind speed in m/s (hover to see current wind gust speed)